Time;durP1;ratioP1;P1;durP2;ratioP2;P2;SDS_P1;SDS_P2;PMS_P1;PMS_P2;Temp;Humidity;BMP_temperature;BMP_pressure;BME280_temperature;BME280_humidity;BME280_pressure;Samples;Min_cycle;Max_cycle;Signal;HPM_P1;HPM_P2
2022/04/22 00:02:08;;;;;;;12.10;4.40;;;;;;;;;;5053489;28;20036;-73
2022/04/22 00:04:34;;;;;;;7.05;4.50;;;;;;;;;;5053444;28;20040;-74
2022/04/22 00:07:00;;;;;;;13.00;4.38;;;;;;;;;;5053520;28;20024;-74
2022/04/22 00:09:26;;;;;;;8.85;4.60;;;;;;;;;;5053645;28;20383;-74
2022/04/22 00:11:52;;;;;;;8.52;4.47;;;;;;;;;;5044850;28;20095;-73
2022/04/22 00:14:18;;;;;;;8.73;4.30;;;;;;;;;;5033563;28;20033;-73
2022/04/22 00:16:44;;;;;;;12.80;4.88;;;;;;;;;;5033500;28;20067;-74
2022/04/22 00:19:10;;;;;;;6.97;4.07;;;;;;;;;;5033396;28;20025;-73
2022/04/22 00:21:36;;;;;;;6.57;4.50;;;;;;;;;;5043465;28;20048;-73
2022/04/22 00:24:02;;;;;;;9.32;4.68;;;;;;;;;;5053288;28;20029;-73
2022/04/22 00:26:29;;;;;;;11.27;5.13;;;;;;;;;;5051987;28;20138;-73
2022/04/22 00:28:55;;;;;;;8.45;4.40;;;;;;;;;;5051797;28;20410;-73
2022/04/22 00:31:21;;;;;;;9.20;4.75;;;;;;;;;;5051468;28;20047;-73
2022/04/22 00:33:47;;;;;;;11.57;5.20;;;;;;;;;;5052925;28;20514;-73
2022/04/22 00:36:13;;;;;;;9.35;4.90;;;;;;;;;;5052884;28;20391;-73
2022/04/22 00:38:39;;;;;;;8.80;4.57;;;;;;;;;;5053013;28;20378;-73
2022/04/22 00:41:05;;;;;;;7.45;4.70;;;;;;;;;;5052943;28;20029;-73
2022/04/22 00:43:41;;;;;;;7.85;5.10;;;;;;;;;;5052878;28;20052;-74
2022/04/22 00:46:07;;;;;;;9.15;4.80;;;;;;;;;;5052689;28;20036;-73
2022/04/22 00:48:34;;;;;;;8.88;5.00;;;;;;;;;;5052704;28;20473;-73
2022/04/22 00:51:00;;;;;;;10.05;4.60;;;;;;;;;;5052740;28;20332;-73
2022/04/22 00:53:26;;;;;;;9.07;4.68;;;;;;;;;;5051285;28;20071;-73
2022/04/22 00:55:54;;;;;;;9.95;5.13;;;;;;;;;;5052778;28;20383;-74
2022/04/22 00:58:20;;;;;;;8.23;4.50;;;;;;;;;;5052591;28;20470;-73
2022/04/22 01:00:46;;;;;;;7.95;4.78;;;;;;;;;;5052323;28;20053;-73
2022/04/22 01:03:12;;;;;;;9.00;5.18;;;;;;;;;;5052524;28;20117;-73
2022/04/22 01:11:09;;;;;;;7.65;4.63;;;;;;;;;;5049754;28;20110;-73
2022/04/22 01:13:35;;;;;;;8.73;4.45;;;;;;;;;;5032385;28;20034;-74
2022/04/22 01:16:01;;;;;;;7.25;4.50;;;;;;;;;;5032342;28;20025;-73
2022/04/22 01:18:27;;;;;;;9.82;5.10;;;;;;;;;;5032241;28;20730;-73
2022/04/22 01:20:53;;;;;;;9.10;4.72;;;;;;;;;;5036218;28;20455;-73
2022/04/22 01:23:19;;;;;;;9.90;5.22;;;;;;;;;;5052126;28;20067;-74
2022/04/22 01:25:45;;;;;;;10.32;5.03;;;;;;;;;;5051782;28;20025;-74
2022/04/22 01:28:11;;;;;;;12.35;5.13;;;;;;;;;;5051899;28;20036;-73
2022/04/22 01:30:37;;;;;;;11.35;4.60;;;;;;;;;;5051838;28;20032;-74
2022/04/22 01:33:03;;;;;;;10.80;5.30;;;;;;;;;;5051993;28;20040;-73
2022/04/22 01:35:29;;;;;;;9.00;5.28;;;;;;;;;;5051689;28;20041;-73
2022/04/22 01:37:55;;;;;;;11.23;5.00;;;;;;;;;;5051554;28;20112;-74
2022/04/22 01:40:21;;;;;;;8.23;4.75;;;;;;;;;;5051952;28;20029;-74
2022/04/22 01:42:47;;;;;;;7.88;4.93;;;;;;;;;;5051924;28;20115;-74
2022/04/22 01:45:13;;;;;;;9.77;5.10;;;;;;;;;;5051754;28;20139;-74
2022/04/22 01:47:39;;;;;;;13.75;5.60;;;;;;;;;;5051776;28;20447;-74
2022/04/22 01:50:06;;;;;;;15.32;5.45;;;;;;;;;;5051569;28;20537;-74
2022/04/22 01:52:34;;;;;;;10.90;5.38;;;;;;;;;;5051621;28;20021;-74
2022/04/22 01:55:00;;;;;;;12.65;5.60;;;;;;;;;;5051822;28;20044;-74
2022/04/22 01:57:26;;;;;;;10.23;4.72;;;;;;;;;;5051598;28;20025;-74
2022/04/22 01:59:52;;;;;;;10.93;5.82;;;;;;;;;;5051541;28;20079;-74
2022/04/22 02:02:18;;;;;;;10.10;5.47;;;;;;;;;;5051434;28;20025;-74
2022/04/22 02:04:44;;;;;;;8.95;5.13;;;;;;;;;;5051539;28;20029;-74
2022/04/22 02:07:11;;;;;;;8.23;4.80;;;;;;;;;;5051497;28;20028;-74
2022/04/22 02:09:37;;;;;;;9.55;5.40;;;;;;;;;;5051627;28;20093;-74
2022/04/22 02:12:04;;;;;;;10.10;5.53;;;;;;;;;;5041497;28;20486;-74
2022/04/22 02:14:30;;;;;;;11.82;5.38;;;;;;;;;;5031550;28;20452;-75
2022/04/22 02:16:56;;;;;;;8.63;4.82;;;;;;;;;;5031540;28;20021;-74
2022/04/22 02:19:23;;;;;;;10.70;6.03;;;;;;;;;;5031571;28;20092;-74
2022/04/22 02:21:49;;;;;;;10.40;4.90;;;;;;;;;;5043146;28;20391;-74
2022/04/22 02:24:15;;;;;;;10.23;5.10;;;;;;;;;;5051365;28;20094;-74
2022/04/22 02:29:26;;;;;;;11.43;5.30;;;;;;;;;;5051207;28;20398;-74
2022/04/22 02:31:53;;;;;;;11.55;5.07;;;;;;;;;;5051217;28;20061;-74
2022/04/22 02:34:22;;;;;;;11.25;5.60;;;;;;;;;;5051306;28;20025;-74
2022/04/22 02:36:48;;;;;;;10.82;5.30;;;;;;;;;;5051123;28;20053;-74
2022/04/22 02:39:14;;;;;;;9.45;4.78;;;;;;;;;;5051461;28;20114;-74
2022/04/22 02:47:10;;;;;;;10.85;5.70;;;;;;;;;;5051512;28;20047;-74
2022/04/22 02:49:36;;;;;;;9.90;4.97;;;;;;;;;;5052625;28;20021;-74
2022/04/22 02:52:03;;;;;;;10.68;5.80;;;;;;;;;;5054881;28;20057;-73
2022/04/22 02:54:33;;;;;;;10.98;5.70;;;;;;;;;;5055082;28;20029;-74
2022/04/22 02:56:59;;;;;;;13.25;5.63;;;;;;;;;;5054877;28;20108;-74
2022/04/22 02:59:25;;;;;;;13.80;5.88;;;;;;;;;;5054786;28;20132;-73
2022/04/22 03:01:51;;;;;;;12.70;6.20;;;;;;;;;;5054698;28;20029;-74
2022/04/22 03:04:18;;;;;;;12.40;7.20;;;;;;;;;;5053287;28;20029;-74
2022/04/22 03:06:44;;;;;;;26.75;6.93;;;;;;;;;;5054505;28;20045;-74
2022/04/22 03:09:10;;;;;;;10.25;6.13;;;;;;;;;;5054715;28;20087;-74
2022/04/22 03:11:36;;;;;;;15.52;7.43;;;;;;;;;;5048301;28;20388;-74
2022/04/22 03:14:05;;;;;;;14.80;6.50;;;;;;;;;;5034607;28;20022;-74
2022/04/22 03:16:32;;;;;;;12.77;6.88;;;;;;;;;;5034590;28;20025;-74
2022/04/22 03:18:58;;;;;;;12.77;7.28;;;;;;;;;;5034628;28;20048;-74
2022/04/22 03:21:25;;;;;;;20.30;7.10;;;;;;;;;;5042780;28;20021;-74
2022/04/22 03:23:52;;;;;;;14.13;7.60;;;;;;;;;;5054338;28;20087;-74
2022/04/22 03:26:18;;;;;;;10.25;6.93;;;;;;;;;;5054350;28;20033;-74
2022/04/22 03:28:44;;;;;;;14.60;7.50;;;;;;;;;;5054356;28;20131;-73
2022/04/22 03:31:10;;;;;;;18.02;7.20;;;;;;;;;;5052685;28;20029;-74
2022/04/22 03:33:36;;;;;;;15.85;7.43;;;;;;;;;;5054284;28;20061;-74
2022/04/22 03:36:03;;;;;;;15.57;7.75;;;;;;;;;;5054081;28;20021;-73
2022/04/22 03:38:29;;;;;;;19.17;8.05;;;;;;;;;;5054236;28;20029;-75
2022/04/22 03:40:55;;;;;;;14.77;7.70;;;;;;;;;;5052735;28;20395;-74
2022/04/22 03:43:23;;;;;;;15.18;7.72;;;;;;;;;;5053949;28;20379;-74
2022/04/22 03:45:49;;;;;;;12.70;7.20;;;;;;;;;;5053890;28;20078;-74
2022/04/22 03:48:15;;;;;;;15.27;8.18;;;;;;;;;;5054103;28;20035;-74
2022/04/22 03:50:41;;;;;;;15.85;8.20;;;;;;;;;;5054074;28;20024;-77
2022/04/22 03:53:11;;;;;;;15.50;7.82;;;;;;;;;;5054159;28;20029;-78
2022/04/22 03:55:38;;;;;;;17.50;7.75;;;;;;;;;;5053986;28;20053;-77
2022/04/22 03:58:10;;;;;;;13.25;7.75;;;;;;;;;;5054073;28;20021;-77
2022/04/22 04:00:40;;;;;;;12.93;8.10;;;;;;;;;;5053506;28;20075;-78
2022/04/22 04:03:07;;;;;;;13.20;8.13;;;;;;;;;;5053867;28;20451;-78
2022/04/22 04:05:33;;;;;;;12.35;8.15;;;;;;;;;;5053575;28;20045;-77
2022/04/22 04:07:59;;;;;;;14.95;8.73;;;;;;;;;;5053895;28;20092;-78
2022/04/22 04:15:57;;;;;;;14.68;8.40;;;;;;;;;;5033667;28;20499;-77
2022/04/22 04:18:23;;;;;;;15.45;9.07;;;;;;;;;;5032218;28;20029;-77
2022/04/22 04:23:34;;;;;;;17.30;9.48;;;;;;;;;;5053535;28;20363;-77
2022/04/22 04:26:00;;;;;;;17.75;9.27;;;;;;;;;;5053471;28;20532;-77
2022/04/22 04:28:29;;;;;;;16.70;8.68;;;;;;;;;;5053386;28;20040;-77
2022/04/22 04:30:55;;;;;;;17.95;8.82;;;;;;;;;;5052797;28;20025;-77
2022/04/22 04:33:22;;;;;;;15.68;8.48;;;;;;;;;;5053424;28;20025;-78
2022/04/22 04:35:48;;;;;;;16.70;9.13;;;;;;;;;;5052969;28;20100;-77
2022/04/22 04:38:15;;;;;;;13.35;8.93;;;;;;;;;;5053148;28;20014;-77
2022/04/22 04:40:41;;;;;;;14.07;8.60;;;;;;;;;;5053239;28;20470;-77
2022/04/22 04:43:07;;;;;;;13.77;8.80;;;;;;;;;;5053193;28;20109;-76
2022/04/22 04:45:33;;;;;;;14.88;9.60;;;;;;;;;;5051589;28;20036;-77
2022/04/22 04:47:59;;;;;;;15.90;8.30;;;;;;;;;;5053180;28;20379;-77
2022/04/22 04:50:25;;;;;;;14.63;8.98;;;;;;;;;;5052622;28;20033;-77
2022/04/22 04:52:52;;;;;;;14.88;8.98;;;;;;;;;;5052839;28;20516;-77
2022/04/22 04:55:18;;;;;;;15.15;9.45;;;;;;;;;;5053123;28;20033;-77
2022/04/22 04:57:44;;;;;;;14.48;9.15;;;;;;;;;;5052445;28;20044;-76
2022/04/22 05:00:11;;;;;;;12.20;8.23;;;;;;;;;;5051717;28;20021;-76
2022/04/22 05:02:38;;;;;;;17.33;9.13;;;;;;;;;;5032667;28;20030;-77
2022/04/22 05:05:05;;;;;;;16.75;8.43;;;;;;;;;;5032150;28;20497;-77
2022/04/22 05:07:31;;;;;;;25.38;9.38;;;;;;;;;;5031322;28;20482;-76
2022/04/22 05:09:57;;;;;;;14.02;9.27;;;;;;;;;;5032682;28;20391;-76
2022/04/22 05:12:23;;;;;;;16.20;8.88;;;;;;;;;;5044399;28;20387;-77
2022/04/22 05:14:49;;;;;;;15.43;9.30;;;;;;;;;;5052219;28;20367;-76
2022/04/22 05:17:15;;;;;;;14.85;9.13;;;;;;;;;;5052518;28;20036;-77
2022/04/22 05:19:41;;;;;;;13.80;8.65;;;;;;;;;;5052458;28;20027;-77
2022/04/22 05:22:07;;;;;;;13.73;8.90;;;;;;;;;;5052170;28;20025;-76
2022/04/22 05:24:35;;;;;;;13.20;8.35;;;;;;;;;;5052225;28;20032;-76
2022/04/22 05:27:01;;;;;;;16.88;8.85;;;;;;;;;;5052321;28;20025;-77
2022/04/22 05:34:57;;;;;;;16.38;9.10;;;;;;;;;;5051906;28;20237;-77
2022/04/22 05:37:23;;;;;;;15.25;9.00;;;;;;;;;;5052062;28;20025;-77
2022/04/22 05:39:49;;;;;;;17.52;9.60;;;;;;;;;;5052152;28;20052;-77
2022/04/22 05:42:15;;;;;;;16.58;9.75;;;;;;;;;;5052118;28;20037;-77
2022/04/22 05:44:41;;;;;;;16.65;9.73;;;;;;;;;;5052022;28;20037;-77
2022/04/22 05:47:07;;;;;;;15.07;9.27;;;;;;;;;;5051823;28;20029;-77
2022/04/22 05:49:33;;;;;;;18.02;9.90;;;;;;;;;;5051871;28;20516;-77
2022/04/22 05:51:59;;;;;;;25.52;10.48;;;;;;;;;;5051665;28;20037;-77
2022/04/22 05:54:25;;;;;;;17.42;9.88;;;;;;;;;;5051947;28;20033;-77
2022/04/22 05:56:51;;;;;;;16.90;9.88;;;;;;;;;;5052110;28;20031;-77
2022/04/22 05:59:17;;;;;;;16.10;9.80;;;;;;;;;;5051859;28;20018;-77
2022/04/22 06:01:43;;;;;;;21.58;11.10;;;;;;;;;;5050135;28;20075;-77
2022/04/22 06:04:10;;;;;;;19.63;10.18;;;;;;;;;;5051866;28;20425;-77
2022/04/22 06:06:36;;;;;;;25.75;10.60;;;;;;;;;;5051595;28;20593;-77
2022/04/22 06:11:46;;;;;;;21.77;11.82;;;;;;;;;;5044023;28;20045;-77
2022/04/22 06:14:12;;;;;;;21.02;12.00;;;;;;;;;;5031758;28;20452;-77
2022/04/22 06:16:39;;;;;;;19.95;10.95;;;;;;;;;;5031747;28;20109;-77
2022/04/22 06:19:05;;;;;;;21.55;12.07;;;;;;;;;;5031659;28;20033;-77
2022/04/22 06:21:32;;;;;;;22.73;11.05;;;;;;;;;;5041071;28;20102;-76
2022/04/22 06:23:58;;;;;;;25.23;12.15;;;;;;;;;;5053721;28;20113;-77
2022/04/22 06:26:24;;;;;;;22.27;11.55;;;;;;;;;;5054438;28;20542;-77
2022/04/22 06:28:50;;;;;;;20.58;10.77;;;;;;;;;;5055546;28;20383;-77
2022/04/22 06:31:16;;;;;;;21.10;11.23;;;;;;;;;;5055321;28;20025;-77
2022/04/22 06:33:42;;;;;;;21.20;10.95;;;;;;;;;;5055406;28;20040;-77
2022/04/22 06:36:14;;;;;;;23.58;11.85;;;;;;;;;;5055317;28;20459;-77
2022/04/22 06:38:40;;;;;;;22.05;11.52;;;;;;;;;;5055562;28;20407;-77
2022/04/22 06:46:36;;;;;;;19.83;11.02;;;;;;;;;;5055152;28;20128;-77
2022/04/22 06:49:02;;;;;;;24.25;11.35;;;;;;;;;;5055211;28;20043;-77
2022/04/22 06:51:29;;;;;;;19.25;10.32;;;;;;;;;;5053674;28;20033;-77
2022/04/22 06:53:55;;;;;;;19.70;10.45;;;;;;;;;;5055151;28;20032;-77
2022/04/22 06:56:26;;;;;;;21.48;11.40;;;;;;;;;;5055246;28;20037;-77
2022/04/22 06:58:52;;;;;;;20.15;10.20;;;;;;;;;;5055147;28;20487;-77
2022/04/22 07:01:19;;;;;;;20.48;10.77;;;;;;;;;;5044772;28;20113;-77
2022/04/22 07:03:45;;;;;;;16.65;10.07;;;;;;;;;;5034930;28;20171;-77
2022/04/22 07:06:12;;;;;;;21.08;10.27;;;;;;;;;;5034732;28;20077;-77
2022/04/22 07:08:38;;;;;;;19.00;9.60;;;;;;;;;;5034917;28;20033;-77
2022/04/22 07:11:05;;;;;;;18.15;9.40;;;;;;;;;;5036495;28;20029;-77
2022/04/22 07:13:32;;;;;;;18.75;9.57;;;;;;;;;;5054774;28;20032;-77
2022/04/22 07:15:59;;;;;;;20.58;8.93;;;;;;;;;;5054614;28;20022;-77
2022/04/22 07:18:26;;;;;;;16.40;9.85;;;;;;;;;;5054553;28;20036;-77
2022/04/22 07:20:52;;;;;;;15.48;8.45;;;;;;;;;;5054582;28;20013;-76
2022/04/22 07:23:18;;;;;;;22.23;8.80;;;;;;;;;;5054467;28;20025;-77
2022/04/22 07:25:46;;;;;;;15.30;9.02;;;;;;;;;;5054381;28;20039;-76
2022/04/22 07:28:13;;;;;;;16.98;8.30;;;;;;;;;;5054452;28;20032;-77
2022/04/22 07:30:40;;;;;;;14.40;8.88;;;;;;;;;;5052848;28;20090;-77
2022/04/22 07:33:07;;;;;;;14.95;8.85;;;;;;;;;;5054267;28;20057;-76
2022/04/22 07:35:33;;;;;;;17.83;8.40;;;;;;;;;;5053542;28;20028;-76
2022/04/22 07:37:59;;;;;;;14.93;8.65;;;;;;;;;;5054426;28;20048;-77
2022/04/22 07:40:26;;;;;;;14.75;7.65;;;;;;;;;;5054380;28;20017;-77
2022/04/22 07:48:41;;;;;;;14.32;7.75;;;;;;;;;;5031768;28;20095;-76
2022/04/22 07:51:07;;;;;;;15.23;7.70;;;;;;;;;;5031585;28;20057;-77
2022/04/22 07:53:35;;;;;;;15.30;7.32;;;;;;;;;;5031648;28;20084;-76
2022/04/22 07:56:02;;;;;;;15.23;7.70;;;;;;;;;;5031632;28;20610;-77
2022/04/22 07:58:29;;;;;;;12.50;7.43;;;;;;;;;;5031603;28;20034;-77
2022/04/22 08:00:55;;;;;;;15.75;7.65;;;;;;;;;;5031464;28;20133;-77
2022/04/22 08:03:21;;;;;;;15.52;7.22;;;;;;;;;;5031559;28;20538;-76
2022/04/22 08:05:47;;;;;;;12.27;7.43;;;;;;;;;;5031208;28;20483;-76
2022/04/22 08:08:13;;;;;;;12.38;6.57;;;;;;;;;;5031486;28;20115;-78
2022/04/22 08:10:39;;;;;;;15.57;7.45;;;;;;;;;;5031516;28;20045;-77
2022/04/22 08:13:06;;;;;;;12.15;6.90;;;;;;;;;;5031352;28;20052;-77
2022/04/22 08:15:35;;;;;;;13.15;6.90;;;;;;;;;;5014597;28;20021;-77
2022/04/22 08:18:02;;;;;;;14.95;7.03;;;;;;;;;;5031384;28;20079;-77
2022/04/22 08:20:30;;;;;;;10.75;6.78;;;;;;;;;;5033450;28;20159;-77
2022/04/22 08:22:56;;;;;;;16.38;7.30;;;;;;;;;;5053592;28;20189;-77
2022/04/22 08:25:23;;;;;;;12.05;7.07;;;;;;;;;;5051918;28;20053;-77
2022/04/22 08:27:51;;;;;;;13.27;7.55;;;;;;;;;;5053345;28;20024;-76
2022/04/22 08:30:17;;;;;;;14.68;7.15;;;;;;;;;;5053176;28;20370;-77
2022/04/22 08:32:43;;;;;;;21.85;7.53;;;;;;;;;;5053184;28;20104;-77
2022/04/22 08:35:09;;;;;;;11.27;6.90;;;;;;;;;;5053101;28;20374;-77
2022/04/22 08:37:37;;;;;;;12.38;6.53;;;;;;;;;;5053142;28;20035;-77
2022/04/22 08:40:05;;;;;;;10.50;6.18;;;;;;;;;;5053098;28;20384;-77
2022/04/22 08:42:33;;;;;;;11.57;6.88;;;;;;;;;;5053165;28;20028;-77
2022/04/22 08:45:00;;;;;;;15.35;6.18;;;;;;;;;;5051528;28;20029;-77
2022/04/22 08:50:16;;;;;;;14.13;7.00;;;;;;;;;;5052698;28;20486;-77
2022/04/22 08:52:43;;;;;;;12.88;6.85;;;;;;;;;;5052784;28;20021;-76
2022/04/22 08:55:09;;;;;;;11.93;6.47;;;;;;;;;;5053033;28;20479;-77
2022/04/22 08:57:36;;;;;;;14.88;6.78;;;;;;;;;;5051545;28;20029;-77
2022/04/22 09:00:04;;;;;;;13.77;6.80;;;;;;;;;;5052558;28;20078;-77
2022/04/22 09:02:30;;;;;;;10.57;6.68;;;;;;;;;;5052554;28;20025;-77
2022/04/22 09:04:56;;;;;;;12.95;6.13;;;;;;;;;;5052282;28;20056;-77
2022/04/22 09:07:32;;;;;;;14.27;6.18;;;;;;;;;;5051341;28;20037;-77
2022/04/22 09:09:58;;;;;;;10.40;6.05;;;;;;;;;;5052428;28;20112;-77
2022/04/22 09:12:25;;;;;;;11.82;6.68;;;;;;;;;;5039399;28;20447;-77
2022/04/22 09:14:52;;;;;;;8.85;6.57;;;;;;;;;;5032526;28;20758;-77
2022/04/22 09:17:25;;;;;;;11.80;5.90;;;;;;;;;;5032439;28;20053;-77
2022/04/22 09:19:53;;;;;;;13.55;5.88;;;;;;;;;;5031048;28;20026;-77
2022/04/22 09:22:20;;;;;;;10.85;5.78;;;;;;;;;;5048663;28;20033;-77
2022/04/22 09:24:50;;;;;;;11.05;5.70;;;;;;;;;;5052325;28;20469;-77
2022/04/22 09:27:16;;;;;;;14.32;5.85;;;;;;;;;;5052264;28;20025;-77
2022/04/22 09:29:42;;;;;;;9.30;4.88;;;;;;;;;;5052095;28;20384;-77
2022/04/22 09:32:10;;;;;;;11.85;4.82;;;;;;;;;;5052062;28;20025;-77
2022/04/22 09:34:39;;;;;;;8.65;5.57;;;;;;;;;;5052000;28;20021;-77
2022/04/22 09:42:49;;;;;;;7.95;4.60;;;;;;;;;;5052124;28;20031;-77
2022/04/22 09:45:15;;;;;;;10.07;5.13;;;;;;;;;;5051848;28;20161;-77
2022/04/22 09:47:42;;;;;;;11.82;5.43;;;;;;;;;;5052068;28;20074;-77
2022/04/22 09:50:12;;;;;;;12.00;5.38;;;;;;;;;;5051806;28;20037;-77
2022/04/22 09:52:43;;;;;;;7.97;5.05;;;;;;;;;;5051766;28;20067;-77
2022/04/22 09:55:10;;;;;;;11.68;5.03;;;;;;;;;;5052101;28;20021;-77
2022/04/22 09:57:55;;;;;;;9.52;4.45;;;;;;;;;;5051717;28;20491;-78
2022/04/22 10:00:25;;;;;;;7.15;4.20;;;;;;;;;;5050082;28;20116;-77
2022/04/22 10:02:52;;;;;;;8.77;4.60;;;;;;;;;;5051778;28;20017;-77
2022/04/22 10:05:25;;;;;;;9.07;5.47;;;;;;;;;;5051298;28;20059;-77
2022/04/22 10:07:52;;;;;;;8.68;4.60;;;;;;;;;;5051693;28;20025;-77
2022/04/22 10:10:19;;;;;;;11.80;4.20;;;;;;;;;;5050185;28;20087;-77
2022/04/22 10:12:48;;;;;;;8.05;4.38;;;;;;;;;;5034209;28;20108;-77
2022/04/22 10:15:17;;;;;;;8.55;4.82;;;;;;;;;;5031314;28;20068;-77
2022/04/22 10:17:44;;;;;;;8.32;4.22;;;;;;;;;;5031658;28;20017;-77
2022/04/22 10:20:10;;;;;;;10.00;4.45;;;;;;;;;;5031507;28;20014;-77
2022/04/22 10:22:36;;;;;;;11.15;4.63;;;;;;;;;;5048546;28;20085;-77
2022/04/22 10:25:04;;;;;;;11.70;4.55;;;;;;;;;;5051543;28;20572;-77
2022/04/22 10:27:39;;;;;;;9.57;4.90;;;;;;;;;;5051333;28;20028;-77
2022/04/22 10:30:10;;;;;;;11.07;5.10;;;;;;;;;;5051150;28;20029;-77
2022/04/22 10:32:38;;;;;;;8.65;4.78;;;;;;;;;;5051418;28;20025;-77
2022/04/22 10:35:05;;;;;;;14.50;4.93;;;;;;;;;;5051412;28;20027;-77
2022/04/22 10:37:33;;;;;;;13.32;4.05;;;;;;;;;;5051535;28;20021;-77
2022/04/22 10:40:00;;;;;;;8.02;4.45;;;;;;;;;;5049903;28;20029;-77
2022/04/22 10:42:34;;;;;;;6.50;3.92;;;;;;;;;;5050490;28;20029;-77
2022/04/22 10:47:47;;;;;;;5.15;4.07;;;;;;;;;;5051669;28;20047;-77
2022/04/22 10:50:22;;;;;;;13.93;3.47;;;;;;;;;;5051219;28;20037;-77
2022/04/22 10:53:03;;;;;;;11.52;2.88;;;;;;;;;;5051438;28;20459;-77
2022/04/22 10:55:38;;;;;;;6.50;2.85;;;;;;;;;;5050124;28;20044;-77
2022/04/22 10:58:14;;;;;;;8.38;3.60;;;;;;;;;;5051328;28;20100;-77
2022/04/22 11:00:42;;;;;;;7.40;3.30;;;;;;;;;;5051106;28;20035;-77
2022/04/22 11:03:31;;;;;;;5.55;2.65;;;;;;;;;;5051702;28;20031;-77
2022/04/22 11:05:57;;;;;;;4.32;2.17;;;;;;;;;;5051885;28;20041;-77
2022/04/22 11:08:29;;;;;;;7.60;2.40;;;;;;;;;;5050882;28;20025;-77
2022/04/22 11:10:55;;;;;;;4.00;1.88;;;;;;;;;;5051558;28;20086;-77
2022/04/22 11:13:40;;;;;;;21.98;2.60;;;;;;;;;;5055836;28;20029;-77
2022/04/22 11:16:07;;;;;;;4.95;2.05;;;;;;;;;;5055718;28;20021;-77
2022/04/22 11:18:34;;;;;;;4.15;1.77;;;;;;;;;;5056023;28;20021;-77
2022/04/22 11:21:15;;;;;;;4.60;1.85;;;;;;;;;;5055558;28;20080;-77
2022/04/22 11:23:42;;;;;;;4.70;1.65;;;;;;;;;;5054489;28;20029;-77
2022/04/22 11:26:11;;;;;;;6.65;1.92;;;;;;;;;;5054433;28;20017;-77
2022/04/22 11:28:38;;;;;;;4.00;1.60;;;;;;;;;;5055420;28;20530;-77
2022/04/22 11:31:08;;;;;;;10.73;2.05;;;;;;;;;;5040380;28;20097;-78
2022/04/22 11:33:54;;;;;;;6.00;1.95;;;;;;;;;;5035241;28;20025;-77
2022/04/22 11:36:20;;;;;;;5.30;1.80;;;;;;;;;;5035524;28;20021;-77
2022/04/22 11:38:50;;;;;;;3.53;2.05;;;;;;;;;;5035678;28;20132;-77
2022/04/22 11:41:17;;;;;;;7.40;1.98;;;;;;;;;;5035282;28;20147;-77
2022/04/22 11:43:43;;;;;;;7.10;2.03;;;;;;;;;;5035182;28;20029;-77
2022/04/22 11:46:12;;;;;;;6.80;1.85;;;;;;;;;;5035253;28;20028;-77
2022/04/22 11:48:44;;;;;;;9.13;1.80;;;;;;;;;;5034246;28;20112;-77
2022/04/22 11:51:11;;;;;;;4.80;1.80;;;;;;;;;;5035024;28;20097;-77
2022/04/22 11:53:37;;;;;;;7.40;1.95;;;;;;;;;;5035013;28;20029;-77
2022/04/22 11:56:04;;;;;;;6.60;1.73;;;;;;;;;;5035261;28;20069;-77
2022/04/22 11:58:32;;;;;;;4.40;1.65;;;;;;;;;;5034435;28;20550;-77
2022/04/22 12:06:31;;;;;;;5.43;1.95;;;;;;;;;;5053474;28;20086;-77
2022/04/22 12:09:02;;;;;;;9.45;2.00;;;;;;;;;;5053633;28;20511;-77
2022/04/22 12:11:28;;;;;;;3.75;2.13;;;;;;;;;;5048302;28;20044;-77
2022/04/22 12:13:54;;;;;;;5.63;2.15;;;;;;;;;;5032994;28;20385;-78
2022/04/22 12:16:27;;;;;;;4.30;1.63;;;;;;;;;;5033419;28;20025;-77
2022/04/22 12:18:54;;;;;;;4.80;2.00;;;;;;;;;;5033433;28;20108;-77
2022/04/22 12:21:20;;;;;;;6.05;2.33;;;;;;;;;;5041021;28;20017;-77
2022/04/22 12:23:50;;;;;;;8.85;3.03;;;;;;;;;;5053405;28;20036;-77
2022/04/22 12:26:19;;;;;;;5.30;1.95;;;;;;;;;;5053195;28;20025;-77
2022/04/22 12:29:02;;;;;;;5.88;2.83;;;;;;;;;;5053084;28;20070;-77
2022/04/22 12:31:30;;;;;;;2.42;1.63;;;;;;;;;;5052614;28;20483;-78
2022/04/22 12:34:00;;;;;;;6.20;2.13;;;;;;;;;;5052987;28;20033;-77
2022/04/22 12:36:27;;;;;;;4.35;2.08;;;;;;;;;;5052721;28;20444;-77
2022/04/22 12:38:53;;;;;;;3.60;1.80;;;;;;;;;;5052861;28;20052;-77
2022/04/22 12:41:23;;;;;;;3.72;1.90;;;;;;;;;;5052920;28;20328;-77
2022/04/22 12:43:53;;;;;;;5.80;1.95;;;;;;;;;;5052639;28;20082;-77
2022/04/22 12:52:11;;;;;;;3.33;1.90;;;;;;;;;;5052881;28;20070;-78
2022/04/22 12:54:38;;;;;;;4.90;2.08;;;;;;;;;;5052747;28;20025;-75
2022/04/22 12:57:07;;;;;;;4.30;2.15;;;;;;;;;;5052528;28;20021;-78
2022/04/22 12:59:59;;;;;;;5.38;2.30;;;;;;;;;;5052758;28;20025;-78
2022/04/22 13:02:30;;;;;;;3.50;2.08;;;;;;;;;;5051323;28;20041;-76
2022/04/22 13:05:03;;;;;;;9.05;2.30;;;;;;;;;;5052355;28;20033;-77
2022/04/22 13:07:40;;;;;;;6.90;2.42;;;;;;;;;;5052720;28;20047;-77
2022/04/22 13:10:06;;;;;;;9.45;2.03;;;;;;;;;;5052501;28;20021;-78
2022/04/22 13:12:38;;;;;;;10.13;1.83;;;;;;;;;;5038176;28;20036;-78
2022/04/22 13:15:04;;;;;;;;;;;;;;;;;;5033049;28;20395;-78
2022/04/22 13:17:30;;;;;;;3.28;1.63;;;;;;;;;;5032414;28;19936;-78
2022/04/22 13:19:56;;;;;;;5.88;2.08;;;;;;;;;;5032244;28;20486;-78
2022/04/22 13:22:22;;;;;;;4.72;2.03;;;;;;;;;;5048533;28;20128;-77
2022/04/22 13:24:48;;;;;;;4.15;1.90;;;;;;;;;;5052205;28;20045;-77
2022/04/22 13:27:15;;;;;;;4.13;1.80;;;;;;;;;;5052352;28;20099;-77
2022/04/22 13:29:41;;;;;;;5.10;1.75;;;;;;;;;;5051817;28;20024;-78
2022/04/22 13:32:08;;;;;;;4.82;1.83;;;;;;;;;;5052118;28;20041;-77
2022/04/22 13:34:34;;;;;;;5.95;1.95;;;;;;;;;;5051505;28;20097;-76
2022/04/22 13:37:00;;;;;;;9.73;2.05;;;;;;;;;;5051844;28;20033;-77
2022/04/22 13:39:26;;;;;;;5.30;2.10;;;;;;;;;;5051908;28;20021;-76
2022/04/22 13:41:52;;;;;;;9.13;2.08;;;;;;;;;;5052125;28;20032;-76
2022/04/22 13:52:21;;;;;;;9.43;1.95;;;;;;;;;;5051751;28;20032;-77
2022/04/22 13:52:34;;;;;;;10.07;2.15;;;;;;;;;;5051844;28;20059;-77
2022/04/22 13:55:01;;;;;;;7.15;2.05;;;;;;;;;;5052167;28;20029;-78
2022/04/22 13:57:27;;;;;;;6.03;2.33;;;;;;;;;;5050491;28;20427;-78
2022/04/22 13:59:53;;;;;;;9.55;2.08;;;;;;;;;;5051748;28;20432;-76
2022/04/22 14:02:19;;;;;;;6.43;2.15;;;;;;;;;;5050395;28;20017;-76
2022/04/22 14:04:46;;;;;;;7.78;2.10;;;;;;;;;;5051606;28;20410;-76
2022/04/22 14:07:12;;;;;;;7.07;2.10;;;;;;;;;;5050115;28;20375;-77
2022/04/22 14:09:38;;;;;;;5.65;1.98;;;;;;;;;;5050253;28;20139;-76
2022/04/22 14:12:05;;;;;;;4.68;2.10;;;;;;;;;;5041936;28;20454;-77
2022/04/22 14:14:31;;;;;;;5.93;2.15;;;;;;;;;;5031938;28;20101;-77
2022/04/22 14:16:57;;;;;;;5.43;2.35;;;;;;;;;;5030399;28;20124;-77
2022/04/22 14:19:24;;;;;;;7.18;2.50;;;;;;;;;;5031774;28;20456;-77
2022/04/22 14:21:51;;;;;;;11.10;2.60;;;;;;;;;;5043573;28;20058;-77
2022/04/22 14:24:17;;;;;;;7.45;2.40;;;;;;;;;;5051583;28;20471;-76
2022/04/22 14:26:43;;;;;;;6.38;2.35;;;;;;;;;;5050405;28;20371;-76
2022/04/22 14:29:09;;;;;;;5.72;2.30;;;;;;;;;;5051474;28;20098;-77
2022/04/22 14:31:35;;;;;;;3.40;2.00;;;;;;;;;;5051310;28;20037;-77
2022/04/22 14:34:01;;;;;;;3.20;2.03;;;;;;;;;;5051516;28;20049;-76
2022/04/22 14:36:27;;;;;;;5.05;2.55;;;;;;;;;;5051435;28;20025;-76
2022/04/22 14:38:53;;;;;;;6.85;2.40;;;;;;;;;;5051557;28;20033;-76
2022/04/22 14:41:19;;;;;;;4.28;2.35;;;;;;;;;;5051778;28;20025;-76
2022/04/22 14:43:45;;;;;;;7.68;2.70;;;;;;;;;;5051366;28;20078;-76
2022/04/22 14:46:14;;;;;;;7.00;2.60;;;;;;;;;;5053859;28;20029;-76
2022/04/22 14:48:40;;;;;;;7.07;2.70;;;;;;;;;;5055251;28;20475;-76
2022/04/22 14:51:06;;;;;;;7.00;2.70;;;;;;;;;;5055320;28;20035;-76
2022/04/22 14:53:32;;;;;;;5.45;2.47;;;;;;;;;;5055040;28;20068;-76
2022/04/22 14:56:00;;;;;;;8.68;3.10;;;;;;;;;;5055630;28;20053;-76
2022/04/22 14:58:26;;;;;;;5.78;2.83;;;;;;;;;;5055135;28;20071;-76
2022/04/22 15:00:52;;;;;;;9.90;2.42;;;;;;;;;;5054957;28;20025;-77
2022/04/22 15:03:18;;;;;;;8.18;2.60;;;;;;;;;;5055047;28;20526;-76
2022/04/22 15:05:46;;;;;;;9.75;2.85;;;;;;;;;;5054745;28;20081;-76
2022/04/22 15:08:13;;;;;;;11.02;2.60;;;;;;;;;;5055172;28;20163;-76
2022/04/22 15:10:39;;;;;;;4.30;2.60;;;;;;;;;;5055051;28;20110;-76
2022/04/22 15:13:06;;;;;;;8.57;3.30;;;;;;;;;;5035099;28;20040;-77
2022/04/22 15:15:32;;;;;;;7.82;3.22;;;;;;;;;;5034814;28;20049;-76
2022/04/22 15:26:12;;;;;;;9.90;3.25;;;;;;;;;;5054682;28;20039;-77
2022/04/22 15:28:38;;;;;;;9.35;3.10;;;;;;;;;;5054644;28;20029;-76
2022/04/22 15:31:08;;;;;;;10.38;3.88;;;;;;;;;;5052902;28;20410;-77
2022/04/22 15:33:34;;;;;;;8.32;3.00;;;;;;;;;;5054253;28;20017;-77
2022/04/22 15:36:01;;;;;;;6.43;3.40;;;;;;;;;;5054832;28;20435;-76
2022/04/22 15:38:30;;;;;;;10.10;3.42;;;;;;;;;;5054319;28;20021;-76
2022/04/22 15:40:56;;;;;;;12.88;3.78;;;;;;;;;;5055418;28;20057;-76
2022/04/22 15:43:22;;;;;;;9.27;3.13;;;;;;;;;;5055381;28;20025;-76
2022/04/22 15:45:49;;;;;;;5.93;3.45;;;;;;;;;;5055291;28;20431;-76
2022/04/22 15:48:15;;;;;;;8.70;3.53;;;;;;;;;;5055108;28;20441;-76
2022/04/22 15:50:41;;;;;;;7.32;3.50;;;;;;;;;;5054441;28;20112;-76
2022/04/22 15:53:07;;;;;;;7.55;3.58;;;;;;;;;;5053181;28;20033;-76
2022/04/22 15:55:33;;;;;;;6.82;3.28;;;;;;;;;;5053800;28;20064;-76